Caribe Legend — V2ST — position and weather

sailwx.info

Track history (hours):
 
Tides and Currents Weather Stations Pressure Air Temp Water Temp Dewpoint Dewpoint Depression Visibility Wind Speed Wind Dir Waves Ship Positions

Caribe Legend

Last reported at 2018-Apr-22 12:05 UTC. Time now 2018-Apr-23 15:20 UTC.
Position N 26°46' W 080°01'.

Length 100 m; draft 5 m.

Type: Cargo ship. MMSI: 304598000.

Date/timePositionNaut miles runAvg speedWind from/ knotsBaromVisibWave heightAir tempDewpointWater temp
2018-Apr-22 12:05N 26°46' W 080°01'1 0.1
2018-Apr-21 13:11N 26°46' W 080°03'2 8.3
2018-Apr-21 13:00N 26°46' W 080°01'2 0.0
2018-Apr-19 11:49N 26°46' W 080°03'3 7.9
2018-Apr-19 11:30N 26°46' W 080°00'510.2
2018-Apr-19 10:59N 26°45' W 079°54'4511.8
2018-Apr-19 07:10N 26°25' W 079°09'313.9
2018-Apr-19 06:59N 26°23' W 079°07'814.3
2018-Apr-19 06:23N 26°18' W 078°60'4813.5
2018-Apr-19 02:48N 25°56' W 078°12'1213.3
2018-Apr-19 01:55N 25°53' W 077°59'714.5
2018-Apr-19 01:25N 25°51' W 077°51'714.9
2018-Apr-19 00:59N 25°49' W 077°44'1213.5
2018-Apr-19 00:06N 25°38' W 077°39'213.4
2018-Apr-18 23:56N 25°36' W 077°38'21 1.4
2018-Apr-18 09:01N 25°54' W 077°50'014.0
2018-Apr-18 09:00N 25°54' W 077°50'913.8
2018-Apr-18 08:20N 25°59' W 077°59'4514.0
2018-Apr-18 05:06N 26°18' W 078°45'514.1
2018-Apr-18 04:46N 26°19' W 078°50'614.1
2018-Apr-18 04:22N 26°21' W 078°56'614.3
2018-Apr-18 03:57N 26°23' W 079°02'5911.8
2018-Apr-17 22:56N 26°46' W 080°03'0 0.0
2018-Apr-17 22:29N 26°46' W 080°03'0 0.0
2018-Apr-17 20:32N 26°46' W 080°03'0 0.1
2018-Apr-17 20:26N 26°46' W 080°03'0 0.0
2018-Apr-17 18:38N 26°46' W 080°03'0 0.0
2018-Apr-17 18:23N 26°46' W 080°03'0 0.0
2018-Apr-17 17:56N 26°46' W 080°03'0 0.0
2018-Apr-17 17:23N 26°46' W 080°03'0 0.0
2018-Apr-17 16:59N 26°46' W 080°03'0 0.0
2018-Apr-17 16:29N 26°46' W 080°03'0 0.0
2018-Apr-17 15:59N 26°46' W 080°03'0 0.0
2018-Apr-17 15:29N 26°46' W 080°03'0 0.0
2018-Apr-17 14:59N 26°46' W 080°03'0 0.0
2018-Apr-17 14:23N 26°46' W 080°03'0 0.0
2018-Apr-17 13:56N 26°46' W 080°03'0 0.0
2018-Apr-17 13:26N 26°46' W 080°03'0 0.0
2018-Apr-17 12:59N 26°46' W 080°03'0 0.0
2018-Apr-17 12:29N 26°46' W 080°03'2 3.3
2018-Apr-17 11:59N 26°46' W 080°01'4 7.7
2018-Apr-17 11:30N 26°44' W 079°58'611.3
2018-Apr-17 11:00N 26°47' W 079°52'8 0.2
2018-Apr-15 12:06N 26°46' W 080°02'1 6.0
2018-Apr-15 11:58N 26°46' W 080°03'0 0.0
2018-Apr-14 12:52N 26°46' W 080°03'2 0.1
2018-Apr-12 23:28N 26°47' W 080°00'  
Track history (hours):
 
Tides and Currents Weather Stations Pressure Air Temp Water Temp Dewpoint Dewpoint Depression Visibility Wind Speed Wind Dir Waves Ship Positions

Caribe Legend

Last reported at 2018-Apr-22 12:05 UTC. Time now 2018-Apr-23 15:20 UTC.
Position N 26°46' W 080°01'.

Length 100 m; draft 5 m.

Type: Cargo ship. MMSI: 304598000.

Date/timePositionNaut miles runAvg speedWind from/ knotsBaromVisibWave heightAir tempDewpointWater temp
2018-Apr-22 12:05N 26°46' W 080°01'1 0.1
2018-Apr-21 13:11N 26°46' W 080°03'2 8.3
2018-Apr-21 13:00N 26°46' W 080°01'2 0.0
2018-Apr-19 11:49N 26°46' W 080°03'3 7.9
2018-Apr-19 11:30N 26°46' W 080°00'510.2
2018-Apr-19 10:59N 26°45' W 079°54'4511.8
2018-Apr-19 07:10N 26°25' W 079°09'313.9
2018-Apr-19 06:59N 26°23' W 079°07'814.3
2018-Apr-19 06:23N 26°18' W 078°60'4813.5
2018-Apr-19 02:48N 25°56' W 078°12'1213.3
2018-Apr-19 01:55N 25°53' W 077°59'714.5
2018-Apr-19 01:25N 25°51' W 077°51'714.9
2018-Apr-19 00:59N 25°49' W 077°44'1213.5
2018-Apr-19 00:06N 25°38' W 077°39'213.4
2018-Apr-18 23:56N 25°36' W 077°38'21 1.4
2018-Apr-18 09:01N 25°54' W 077°50'014.0
2018-Apr-18 09:00N 25°54' W 077°50'913.8
2018-Apr-18 08:20N 25°59' W 077°59'4514.0
2018-Apr-18 05:06N 26°18' W 078°45'514.1
2018-Apr-18 04:46N 26°19' W 078°50'614.1
2018-Apr-18 04:22N 26°21' W 078°56'614.3
2018-Apr-18 03:57N 26°23' W 079°02'5911.8
2018-Apr-17 22:56N 26°46' W 080°03'0 0.0
2018-Apr-17 22:29N 26°46' W 080°03'0 0.0
2018-Apr-17 20:32N 26°46' W 080°03'0 0.1
2018-Apr-17 20:26N 26°46' W 080°03'0 0.0
2018-Apr-17 18:38N 26°46' W 080°03'0 0.0
2018-Apr-17 18:23N 26°46' W 080°03'0 0.0
2018-Apr-17 17:56N 26°46' W 080°03'0 0.0
2018-Apr-17 17:23N 26°46' W 080°03'0 0.0
2018-Apr-17 16:59N 26°46' W 080°03'0 0.0
2018-Apr-17 16:29N 26°46' W 080°03'0 0.0
2018-Apr-17 15:59N 26°46' W 080°03'0 0.0
2018-Apr-17 15:29N 26°46' W 080°03'0 0.0
2018-Apr-17 14:59N 26°46' W 080°03'0 0.0
2018-Apr-17 14:23N 26°46' W 080°03'0 0.0
2018-Apr-17 13:56N 26°46' W 080°03'0 0.0
2018-Apr-17 13:26N 26°46' W 080°03'0 0.0
2018-Apr-17 12:59N 26°46' W 080°03'0 0.0
2018-Apr-17 12:29N 26°46' W 080°03'2 3.3
2018-Apr-17 11:59N 26°46' W 080°01'4 7.7
2018-Apr-17 11:30N 26°44' W 079°58'611.3
2018-Apr-17 11:00N 26°47' W 079°52'8 0.2
2018-Apr-15 12:06N 26°46' W 080°02'1 6.0
2018-Apr-15 11:58N 26°46' W 080°03'0 0.0
2018-Apr-14 12:52N 26°46' W 080°03'2 0.1
2018-Apr-12 23:28N 26°47' W 080°00'  

Dump ship's entire track history